Time;durP1;ratioP1;P1;durP2;ratioP2;P2;SDS_P1;SDS_P2;PMS_P1;PMS_P2;Temp;Humidity;BMP_temperature;BMP_pressure;BME280_temperature;BME280_humidity;BME280_pressure;Samples;Min_cycle;Max_cycle;Signal;HPM_P1;HPM_P2
2023/12/24 00:02:04;;;;;;;1.10;0.77;;;;;;;8.62;100.00;95165.13;7427913;19;20433;-88
2023/12/24 00:04:31;;;;;;;1.40;1.03;;;;;;;9.00;100.00;95212.22;7426869;19;20377;-89
2023/12/24 00:06:58;;;;;;;1.30;1.00;;;;;;;8.99;100.00;95207.31;7398139;19;20409;-89
2023/12/24 00:09:26;;;;;;;2.77;1.30;;;;;;;8.75;100.00;95171.22;7397042;19;20925;-90
2023/12/24 00:11:53;;;;;;;2.13;1.37;;;;;;;8.33;100.00;95085.56;7396426;19;20897;-89
2023/12/24 00:14:21;;;;;;;0.97;0.90;;;;;;;8.63;100.00;95153.59;7397935;19;20391;-90
2023/12/24 00:16:48;;;;;;;1.00;0.90;;;;;;;8.68;100.00;95157.91;7395644;19;20460;-89
2023/12/24 00:19:16;;;;;;;1.63;1.53;;;;;;;8.94;100.00;95210.88;7396809;19;20393;-89
2023/12/24 00:21:43;;;;;;;0.80;0.80;;;;;;;8.72;100.00;95174.47;7395982;19;20468;-90
2023/12/24 00:24:11;;;;;;;1.37;1.27;;;;;;;8.89;100.00;95206.56;7397326;19;20471;-90
2023/12/24 00:26:39;;;;;;;1.30;1.03;;;;;;;8.77;100.00;95190.75;7396510;19;20377;-91
2023/12/24 00:29:06;;;;;;;1.40;1.20;;;;;;;8.76;100.00;95189.22;7396341;19;20390;-89
2023/12/24 00:31:34;;;;;;;1.10;1.00;;;;;;;8.89;100.00;95226.75;7396416;19;20498;-89
2023/12/24 00:34:01;;;;;;;1.40;0.93;;;;;;;8.51;100.00;95177.03;7397980;19;20373;-90
2023/12/24 00:36:29;;;;;;;2.20;1.10;;;;;;;8.94;100.00;95248.28;7394905;19;20380;-90
2023/12/24 00:38:56;;;;;;;1.20;1.10;;;;;;;8.80;100.00;95218.16;7396140;19;20389;-90
2023/12/24 00:41:24;;;;;;;1.10;1.00;;;;;;;8.49;100.00;95187.00;7395524;19;20394;-90
2023/12/24 00:43:52;;;;;;;0.90;0.80;;;;;;;8.49;100.00;95187.78;7396172;19;20368;-89
2023/12/24 00:46:19;;;;;;;1.10;1.00;;;;;;;8.74;100.00;95224.63;7396000;19;20361;-90
2023/12/24 00:48:47;;;;;;;1.20;0.93;;;;;;;8.40;100.00;95187.03;7396122;19;20405;-89
2023/12/24 00:51:15;;;;;;;1.63;0.90;;;;;;;8.86;100.00;95250.91;7395593;19;20390;-90
2023/12/24 00:53:42;;;;;;;1.10;1.00;;;;;;;7.92;100.00;95095.81;7395347;19;20383;-89
2023/12/24 00:56:10;;;;;;;2.60;1.10;;;;;;;8.36;100.00;95144.28;7395255;19;20369;-90
2023/12/24 00:58:37;;;;;;;1.60;1.30;;;;;;;8.49;100.00;95169.47;7395740;19;20385;-90
2023/12/24 01:01:06;;;;;;;1.00;0.90;;;;;;;8.86;100.00;95224.75;7395505;19;20388;-89
2023/12/24 01:03:33;;;;;;;1.60;1.10;;;;;;;8.40;100.00;95163.53;7396107;19;20373;-89
2023/12/24 01:06:01;;;;;;;0.90;0.90;;;;;;;8.65;100.00;95186.22;7395733;19;20385;-90
2023/12/24 01:08:28;;;;;;;1.27;1.00;;;;;;;8.49;100.00;95155.63;7395599;19;20389;-89
2023/12/24 01:10:57;;;;;;;1.83;1.10;;;;;;;8.48;100.00;95147.03;7395702;19;20376;-90
2023/12/24 01:13:24;;;;;;;1.93;1.10;;;;;;;8.79;100.00;95208.78;7395089;19;20699;-90
2023/12/24 01:15:51;;;;;;;1.10;0.90;;;;;;;8.69;100.00;95177.72;7394608;19;20368;-90
2023/12/24 01:18:22;;;;;;;0.87;0.87;;;;;;;8.70;100.00;95200.19;7395309;19;20400;-90
2023/12/24 01:20:50;;;;;;;2.10;1.20;;;;;;;8.86;100.00;95215.06;7402110;19;20400;-90
2023/12/24 01:23:18;;;;;;;1.20;1.10;;;;;;;8.86;100.00;95201.22;7399432;19;20937;-91
2023/12/24 01:25:46;;;;;;;1.77;1.20;;;;;;;8.62;100.00;95173.75;7404199;19;20441;-89
2023/12/24 01:28:14;;;;;;;1.63;0.93;;;;;;;8.61;100.00;95187.13;7404025;19;20380;-90
2023/12/24 01:30:42;;;;;;;0.80;0.80;;;;;;;8.91;100.00;95235.84;7402063;19;20509;-90
2023/12/24 01:33:09;;;;;;;1.33;1.23;;;;;;;8.38;100.00;95178.75;7400208;19;20440;-90
2023/12/24 01:35:37;;;;;;;1.30;1.20;;;;;;;9.17;100.00;95293.31;7401674;19;20368;-89
2023/12/24 01:38:13;;;;;;;1.00;0.90;;;;;;;8.75;100.00;95205.25;7402150;19;20388;-90
2023/12/24 01:40:50;;;;;;;6.50;1.40;;;;;;;8.98;100.00;95232.72;7401229;19;20368;-90
2023/12/24 01:43:18;;;;;;;2.63;2.10;;;;;;;8.79;100.00;95216.63;7399375;19;20420;-89
2023/12/24 01:45:45;;;;;;;1.20;1.10;;;;;;;8.86;100.00;95217.66;7401367;19;20401;-89
2023/12/24 01:48:15;;;;;;;1.77;1.17;;;;;;;8.67;100.00;95179.91;7401257;19;20892;-90
2023/12/24 01:50:45;;;;;;;1.73;1.03;;;;;;;8.65;100.00;95188.06;7401306;19;20394;-89
2023/12/24 01:53:16;;;;;;;1.20;1.10;;;;;;;8.46;100.00;95153.66;7399440;19;20384;-90
2023/12/24 01:55:46;;;;;;;2.03;1.63;;;;;;;8.48;100.00;95160.09;7401508;19;20374;-90
2023/12/24 01:58:15;;;;;;;1.23;1.00;;;;;;;8.53;100.00;95180.09;7401033;19;20389;-90
2023/12/24 02:00:42;;;;;;;1.00;0.90;;;;;;;8.69;100.00;95185.56;7401173;19;20380;-89
2023/12/24 02:03:10;;;;;;;1.60;1.10;;;;;;;8.88;100.00;95218.13;7400953;19;20404;-90
2023/12/24 02:05:40;;;;;;;2.30;1.60;;;;;;;9.35;100.00;95285.41;7401536;19;20456;-90
2023/12/24 02:08:10;;;;;;;2.03;1.60;;;;;;;8.83;100.00;95220.91;7401202;19;20382;-90
2023/12/24 02:10:38;;;;;;;1.40;1.30;;;;;;;8.60;100.00;95182.97;7401567;19;20753;-90
2023/12/24 02:13:07;;;;;;;1.50;1.10;;;;;;;8.90;100.00;95217.81;7398955;19;20745;-90
2023/12/24 02:15:35;;;;;;;2.90;1.50;;;;;;;8.87;100.00;95215.81;7400840;19;20373;-90
2023/12/24 02:18:03;;;;;;;2.97;1.70;;;;;;;8.90;100.00;95241.34;7398190;19;20384;-90
2023/12/24 02:20:31;;;;;;;1.50;1.40;;;;;;;8.61;100.00;95166.97;7400720;19;20413;-91
2023/12/24 02:22:58;;;;;;;1.83;1.73;;;;;;;9.19;100.00;95264.97;7398368;19;20440;-90
2023/12/24 02:25:26;;;;;;;1.60;1.50;;;;;;;9.15;100.00;95237.88;7400516;19;20371;-90
2023/12/24 02:28:15;;;;;;;1.50;1.40;;;;;;;9.39;100.00;95286.28;7400619;19;20393;-90
2023/12/24 02:30:47;;;;;;;1.83;1.20;;;;;;;8.82;100.00;95180.16;7398101;19;20372;-90
2023/12/24 02:33:17;;;;;;;2.13;1.27;;;;;;;7.98;100.00;95084.91;7398655;19;20420;-90
2023/12/24 02:35:47;;;;;;;2.37;1.80;;;;;;;9.02;100.00;95238.84;7399917;19;20369;-90
2023/12/24 02:38:15;;;;;;;2.33;1.93;;;;;;;8.78;100.00;95212.47;7400420;19;20399;-90
2023/12/24 02:40:42;;;;;;;3.27;1.97;;;;;;;9.13;100.00;95250.50;7400614;19;20877;-91
2023/12/24 02:43:10;;;;;;;1.90;1.77;;;;;;;8.77;100.00;95197.84;7398309;19;20431;-90
2023/12/24 02:45:39;;;;;;;1.77;1.27;;;;;;;8.94;100.00;95223.97;7400140;19;20456;-90
2023/12/24 02:48:07;;;;;;;1.97;1.33;;;;;;;8.83;100.00;95204.44;7399541;19;20373;-91
2023/12/24 02:50:36;;;;;;;2.00;1.40;;;;;;;9.00;100.00;95214.84;7399336;19;20409;-90
2023/12/24 02:53:03;;;;;;;1.50;1.40;;;;;;;9.38;100.00;95292.63;7397645;19;20420;-89
2023/12/24 02:55:31;;;;;;;2.60;2.40;;;;;;;9.22;100.00;95276.66;7399691;19;20381;-90
2023/12/24 02:57:58;;;;;;;1.30;1.20;;;;;;;8.77;100.00;95208.31;7397985;19;20420;-90
2023/12/24 03:00:26;;;;;;;1.20;1.10;;;;;;;8.52;100.00;95142.72;7399868;19;20761;-90
2023/12/24 03:02:53;;;;;;;1.53;1.30;;;;;;;8.87;100.00;95207.97;7397852;19;20416;-90
2023/12/24 03:05:21;;;;;;;1.40;1.30;;;;;;;8.58;100.00;95167.59;7399872;19;20872;-90
2023/12/24 03:07:49;;;;;;;1.53;1.43;;;;;;;8.79;100.00;95188.63;7399413;19;20369;-90
2023/12/24 03:10:17;;;;;;;2.70;1.40;;;;;;;8.62;100.00;95167.75;7399250;19;20464;-89
2023/12/24 03:12:44;;;;;;;1.50;1.33;;;;;;;8.81;100.00;95185.69;7400013;19;20425;-90
2023/12/24 03:15:12;;;;;;;2.90;1.33;;;;;;;8.40;100.00;95140.00;7398952;19;20396;-90
2023/12/24 03:17:39;;;;;;;1.77;1.57;;;;;;;8.54;100.00;95177.16;7399351;19;20849;-90
2023/12/24 03:20:08;;;;;;;2.77;1.40;;;;;;;9.14;100.00;95267.75;7398952;19;20402;-91
2023/12/24 03:22:35;;;;;;;1.40;1.30;;;;;;;8.73;100.00;95207.41;7396862;19;20428;-90
2023/12/24 03:25:04;;;;;;;1.03;0.93;;;;;;;8.66;100.00;95205.28;7398491;19;20388;-90
2023/12/24 03:27:31;;;;;;;1.83;1.20;;;;;;;8.90;100.00;95207.34;7398491;19;20395;-90
2023/12/24 03:29:59;;;;;;;1.30;1.20;;;;;;;8.42;100.00;95169.19;7398032;19;20381;-90
2023/12/24 03:32:27;;;;;;;3.00;1.63;;;;;;;9.13;100.00;95276.69;7397602;19;20476;-90
2023/12/24 03:34:54;;;;;;;1.50;1.40;;;;;;;8.46;100.00;95171.94;7398219;19;20381;-90
2023/12/24 03:37:22;;;;;;;1.40;1.30;;;;;;;8.60;100.00;95199.44;7398667;19;20712;-90
2023/12/24 03:39:50;;;;;;;1.60;1.10;;;;;;;8.41;100.00;95167.66;7398512;19;20389;-90
2023/12/24 03:42:17;;;;;;;2.20;1.33;;;;;;;8.51;100.00;95185.63;7396663;19;20796;-90
2023/12/24 03:44:45;;;;;;;1.20;1.00;;;;;;;8.53;100.00;95198.41;7399463;19;20377;-90
2023/12/24 03:47:13;;;;;;;3.73;2.20;;;;;;;8.22;100.00;95141.88;7397854;19;20840;-90
2023/12/24 03:49:40;;;;;;;5.63;1.07;;;;;;;7.84;100.00;95086.94;7397445;19;20373;-91
2023/12/24 03:52:08;;;;;;;1.37;1.27;;;;;;;7.94;100.00;95109.34;7397046;19;20423;-90
2023/12/24 03:54:35;;;;;;;1.03;0.93;;;;;;;7.99;100.00;95102.13;7397309;19;20858;-90
2023/12/24 03:57:03;;;;;;;1.23;1.13;;;;;;;8.27;100.00;95148.78;7396797;19;20397;-90
2023/12/24 03:59:30;;;;;;;1.40;1.30;;;;;;;8.17;100.00;95149.88;7397760;19;20372;-90
2023/12/24 04:01:58;;;;;;;1.20;1.00;;;;;;;8.29;100.00;95167.53;7396946;19;20488;-90
2023/12/24 04:04:26;;;;;;;7.23;2.00;;;;;;;7.85;100.00;95109.38;7399447;19;20380;-91
2023/12/24 04:06:53;;;;;;;1.53;1.40;;;;;;;7.94;100.00;95117.94;7397547;19;20397;-90
2023/12/24 04:09:21;;;;;;;1.00;1.00;;;;;;;8.26;100.00;95158.47;7397992;19;20387;-91
2023/12/24 04:11:49;;;;;;;1.10;1.00;;;;;;;8.13;100.00;95111.63;7396867;19;20400;-91
2023/12/24 04:14:17;;;;;;;1.70;1.23;;;;;;;7.84;100.00;95096.59;7397570;19;20392;-90
2023/12/24 04:16:45;;;;;;;1.30;1.20;;;;;;;8.39;100.00;95166.44;7396958;19;20412;-90
2023/12/24 04:19:12;;;;;;;1.20;1.10;;;;;;;7.90;100.00;95097.97;7396720;19;20377;-90
2023/12/24 04:21:40;;;;;;;1.03;0.93;;;;;;;8.08;100.00;95125.59;7395844;19;20419;-90
2023/12/24 04:24:07;;;;;;;4.20;2.30;;;;;;;8.35;100.00;95161.81;7397125;19;20397;-89
2023/12/24 04:26:38;;;;;;;3.43;1.40;;;;;;;7.94;100.00;95120.56;7397073;19;20409;-90
2023/12/24 04:29:05;;;;;;;1.20;1.10;;;;;;;7.96;100.00;95125.47;7396753;19;20379;-90
2023/12/24 04:31:39;;;;;;;1.30;1.20;;;;;;;8.67;100.00;95213.91;7396357;19;20373;-90
2023/12/24 04:34:07;;;;;;;1.27;1.17;;;;;;;8.25;100.00;95140.50;7396620;19;20493;-90
2023/12/24 04:36:36;;;;;;;1.33;0.87;;;;;;;8.02;100.00;95121.63;7396522;19;20440;-90
2023/12/24 04:39:03;;;;;;;1.93;1.23;;;;;;;8.15;100.00;95141.59;7396250;19;20464;-90
2023/12/24 04:41:31;;;;;;;1.10;1.00;;;;;;;8.67;100.00;95240.06;7395968;19;20409;-90
2023/12/24 04:44:03;;;;;;;1.40;1.30;;;;;;;8.02;100.00;95132.84;7397490;19;20469;-90
2023/12/24 04:46:31;;;;;;;1.73;1.63;;;;;;;8.47;100.00;95189.16;7396972;19;20373;-90
2023/12/24 04:48:58;;;;;;;1.80;1.30;;;;;;;8.25;100.00;95148.34;7396050;19;20384;-90
2023/12/24 04:51:26;;;;;;;1.80;1.63;;;;;;;8.72;100.00;95214.47;7395287;19;20890;-90
2023/12/24 04:53:54;;;;;;;3.07;1.93;;;;;;;8.04;100.00;95114.25;7398047;19;20373;-90
2023/12/24 04:56:22;;;;;;;1.87;1.77;;;;;;;8.33;100.00;95163.22;7403699;19;20377;-89
2023/12/24 04:58:51;;;;;;;1.23;1.13;;;;;;;7.96;100.00;95100.09;7400968;19;20392;-90
2023/12/24 05:01:22;;;;;;;2.00;1.40;;;;;;;8.51;100.00;95196.09;7402588;19;20400;-90
2023/12/24 05:03:49;;;;;;;1.37;1.27;;;;;;;8.50;100.00;95194.53;7403320;19;20426;-91
2023/12/24 05:06:17;;;;;;;2.57;2.37;;;;;;;8.06;100.00;95144.22;7403047;19;20384;-90
2023/12/24 05:08:45;;;;;;;1.60;1.43;;;;;;;7.62;100.00;95079.28;7410801;19;20388;-90
2023/12/24 05:11:12;;;;;;;3.37;1.73;;;;;;;8.09;100.00;95168.19;7428269;19;20400;-90
2023/12/24 05:13:40;;;;;;;1.33;1.23;;;;;;;8.14;100.00;95173.25;7431400;19;20369;-90
2023/12/24 05:16:08;;;;;;;2.60;1.40;;;;;;;8.06;100.00;95146.81;7431109;19;20393;-91
2023/12/24 05:18:35;;;;;;;3.10;1.70;;;;;;;7.97;100.00;95130.41;7429411;19;20397;-90
2023/12/24 05:21:03;;;;;;;1.00;0.90;;;;;;;8.25;100.00;95169.25;7433686;19;20369;-89
2023/12/24 05:23:31;;;;;;;1.30;1.20;;;;;;;8.63;100.00;95208.50;7431240;19;20413;-88
2023/12/24 05:25:59;;;;;;;1.47;1.37;;;;;;;7.52;100.00;95058.72;7431531;19;20396;-90
2023/12/24 05:28:26;;;;;;;0.90;0.90;;;;;;;8.06;100.00;95138.97;7430181;19;20388;-90
2023/12/24 05:30:54;;;;;;;1.33;1.23;;;;;;;7.92;100.00;95103.66;7403811;19;20463;-90
2023/12/24 05:33:22;;;;;;;2.47;1.13;;;;;;;8.68;100.00;95218.06;7400487;19;20412;-91
2023/12/24 05:35:52;;;;;;;0.97;0.93;;;;;;;8.10;100.00;95125.28;7402498;19;20891;-91
2023/12/24 05:38:20;;;;;;;1.10;1.00;;;;;;;8.03;100.00;95126.53;7400352;19;20395;-90
2023/12/24 05:40:47;;;;;;;1.20;1.10;;;;;;;8.65;100.00;95214.22;7401941;19;20866;-91
2023/12/24 05:43:15;;;;;;;1.10;1.00;;;;;;;8.29;100.00;95170.91;7400051;19;20412;-90
2023/12/24 05:45:43;;;;;;;1.40;1.30;;;;;;;8.36;100.00;95180.88;7401955;19;20392;-90
2023/12/24 05:48:13;;;;;;;1.53;1.10;;;;;;;8.24;100.00;95165.88;7404187;19;20375;-90
2023/12/24 05:50:41;;;;;;;2.03;1.20;;;;;;;8.20;100.00;95146.63;7403522;19;20364;-89
2023/12/24 05:53:08;;;;;;;1.10;1.00;;;;;;;8.53;100.00;95212.25;7399498;19;20433;-90
2023/12/24 05:55:38;;;;;;;1.10;1.00;;;;;;;8.36;100.00;95176.41;7401767;19;20672;-90
2023/12/24 05:58:06;;;;;;;1.57;1.47;;;;;;;8.18;100.00;95127.13;7400370;19;20381;-90
2023/12/24 06:00:34;;;;;;;1.37;1.27;;;;;;;8.03;100.00;95129.16;7401383;19;20739;-90
2023/12/24 06:03:03;;;;;;;1.33;0.90;;;;;;;8.65;100.00;95203.75;7399787;19;20416;-90
2023/12/24 06:05:31;;;;;;;1.47;1.33;;;;;;;8.13;100.00;95115.00;7400317;19;20393;-91
2023/12/24 06:07:58;;;;;;;6.50;1.60;;;;;;;8.37;100.00;95166.72;7401032;19;20372;-90
2023/12/24 06:10:26;;;;;;;2.40;1.43;;;;;;;8.31;100.00;95162.75;7400872;19;20377;-90
2023/12/24 06:12:54;;;;;;;1.40;1.30;;;;;;;8.47;100.00;95197.00;7399073;19;20955;-90
2023/12/24 06:15:22;;;;;;;1.30;1.20;;;;;;;8.11;100.00;95138.06;7401109;19;20701;-91
2023/12/24 06:17:49;;;;;;;1.40;1.30;;;;;;;8.13;100.00;95143.75;7400442;19;20385;-90
2023/12/24 06:20:17;;;;;;;1.60;1.50;;;;;;;8.15;100.00;95149.44;7400800;19;20379;-91
2023/12/24 06:22:45;;;;;;;2.40;1.77;;;;;;;8.20;100.00;95172.00;7398593;19;20444;-90
2023/12/24 06:25:12;;;;;;;1.67;1.57;;;;;;;8.16;100.00;95153.56;7402017;19;20389;-90
2023/12/24 06:27:40;;;;;;;1.80;1.70;;;;;;;8.52;100.00;95205.47;7400663;19;20456;-90
2023/12/24 06:30:08;;;;;;;1.40;1.30;;;;;;;8.44;100.00;95190.56;7400247;19;20733;-90
2023/12/24 06:32:36;;;;;;;1.50;1.30;;;;;;;8.32;100.00;95178.13;7398930;19;20393;-90
2023/12/24 06:35:04;;;;;;;3.20;1.20;;;;;;;8.54;100.00;95213.00;7400814;19;20441;-90
2023/12/24 06:37:31;;;;;;;1.80;1.17;;;;;;;8.55;100.00;95204.09;7400429;19;20452;-91
2023/12/24 06:39:59;;;;;;;1.20;1.10;;;;;;;8.32;100.00;95183.38;7401124;19;20396;-91
2023/12/24 06:42:26;;;;;;;1.50;1.40;;;;;;;8.11;100.00;95150.38;7398720;19;20412;-90
2023/12/24 06:44:54;;;;;;;1.60;1.50;;;;;;;7.96;100.00;95135.91;7400087;19;20382;-90
2023/12/24 06:47:21;;;;;;;1.50;1.40;;;;;;;8.20;100.00;95182.47;7399599;19;20373;-90
2023/12/24 06:49:49;;;;;;;4.43;2.00;;;;;;;8.04;100.00;95159.44;7399447;19;20381;-90
2023/12/24 06:52:17;;;;;;;3.97;1.73;;;;;;;8.39;100.00;95224.72;7398658;19;20906;-91
2023/12/24 06:54:44;;;;;;;1.63;1.53;;;;;;;8.16;100.00;95199.84;7399513;19;20444;-90
2023/12/24 06:57:12;;;;;;;1.97;1.40;;;;;;;8.18;100.00;95184.63;7399329;19;20393;-90
2023/12/24 06:59:39;;;;;;;1.40;1.27;;;;;;;8.67;100.00;95263.59;7397343;19;20387;-90
2023/12/24 07:02:07;;;;;;;1.23;1.13;;;;;;;7.86;100.00;95133.66;7398496;19;20468;-89
2023/12/24 07:04:35;;;;;;;1.90;1.43;;;;;;;8.42;100.00;95226.72;7399749;19;20420;-90
2023/12/24 07:07:03;;;;;;;1.73;1.57;;;;;;;8.04;100.00;95190.78;7399211;19;20377;-89
2023/12/24 07:09:30;;;;;;;1.83;1.73;;;;;;;7.68;100.00;95130.25;7399496;19;20400;-89
2023/12/24 07:11:59;;;;;;;1.00;0.90;;;;;;;8.05;100.00;95184.47;7397969;19;20424;-89
2023/12/24 07:14:26;;;;;;;1.20;1.10;;;;;;;8.24;100.00;95219.97;7400670;19;20448;-89
2023/12/24 07:16:54;;;;;;;1.13;1.00;;;;;;;8.27;100.00;95219.38;7398628;19;20391;-89
2023/12/24 07:19:21;;;;;;;1.33;1.23;;;;;;;8.09;100.00;95182.00;7397775;19;20397;-90
2023/12/24 07:21:49;;;;;;;1.13;1.03;;;;;;;8.28;100.00;95220.91;7397980;19;20437;-90
2023/12/24 07:24:17;;;;;;;2.40;1.77;;;;;;;8.61;100.00;95276.03;7400462;19;20440;-90
2023/12/24 07:26:45;;;;;;;1.73;1.63;;;;;;;7.79;100.00;95149.78;7399559;19;20369;-90
2023/12/24 07:29:12;;;;;;;1.30;1.20;;;;;;;7.92;100.00;95171.59;7399346;19;20413;-89
2023/12/24 07:31:40;;;;;;;0.90;0.90;;;;;;;7.97;100.00;95171.41;7397797;19;20914;-90
2023/12/24 07:34:07;;;;;;;0.97;0.87;;;;;;;8.20;100.00;95219.06;7400418;19;20385;-89
2023/12/24 07:36:35;;;;;;;1.83;1.50;;;;;;;8.26;100.00;95229.06;7400051;19;20373;-90
2023/12/24 07:39:03;;;;;;;0.80;0.80;;;;;;;7.81;100.00;95163.28;7397201;19;20865;-89
2023/12/24 07:41:31;;;;;;;4.43;1.13;;;;;;;8.26;100.00;95231.66;7397771;19;20422;-88
2023/12/24 07:44:04;;;;;;;1.20;1.10;;;;;;;7.73;100.00;95138.72;7397636;19;20381;-89
2023/12/24 07:46:31;;;;;;;1.13;1.07;;;;;;;8.06;100.00;95185.25;7398101;19;20373;-90
2023/12/24 07:48:59;;;;;;;0.80;0.80;;;;;;;8.33;100.00;95229.34;7398152;19;20386;-90
2023/12/24 07:51:28;;;;;;;2.70;0.80;;;;;;;8.22;100.00;95211.66;7397110;19;20437;-90
2023/12/24 07:53:56;;;;;;;2.10;1.77;;;;;;;7.86;100.00;95147.47;7398000;19;20365;-90
2023/12/24 07:56:23;;;;;;;0.90;0.70;;;;;;;7.41;100.00;95090.34;7397425;19;20365;-90
2023/12/24 07:58:51;;;;;;;2.20;2.00;;;;;;;7.78;100.00;95134.41;7396958;19;20385;-90
2023/12/24 08:01:18;;;;;;;1.57;1.47;;;;;;;7.73;100.00;95127.50;7397202;19;20419;-90
2023/12/24 08:03:46;;;;;;;0.80;0.80;;;;;;;8.09;100.00;95168.19;7398118;19;20361;-90
2023/12/24 08:06:16;;;;;;;1.67;1.57;;;;;;;8.04;100.00;95175.09;7397300;19;20372;-90
2023/12/24 08:08:55;;;;;;;3.37;1.10;;;;;;;8.01;100.00;95159.28;7397927;19;20384;-89
2023/12/24 08:11:22;;;;;;;1.20;0.93;;;;;;;8.00;100.00;95153.28;7396697;19;20918;-90
2023/12/24 08:13:50;;;;;;;1.10;1.00;;;;;;;8.17;100.00;95164.78;7398038;19;20372;-90
2023/12/24 08:16:19;;;;;;;0.80;0.80;;;;;;;8.02;100.00;95151.13;7397157;19;20385;-90
2023/12/24 08:18:47;;;;;;;0.80;0.80;;;;;;;8.25;100.00;95162.16;7396631;19;20388;-90
2023/12/24 08:21:14;;;;;;;1.00;0.90;;;;;;;8.09;100.00;95144.66;7397394;19;20408;-90
2023/12/24 08:23:42;;;;;;;0.90;0.80;;;;;;;8.38;100.00;95188.44;7395731;19;20393;-90
2023/12/24 08:26:09;;;;;;;0.83;0.83;;;;;;;8.04;100.00;95132.53;7397673;19;20380;-90
2023/12/24 08:28:40;;;;;;;0.90;0.80;;;;;;;7.67;100.00;95071.28;7398140;19;20380;-91
2023/12/24 08:31:07;;;;;;;0.97;0.90;;;;;;;8.30;100.00;95167.22;7404873;19;20464;-89
2023/12/24 08:33:34;;;;;;;1.53;1.00;;;;;;;8.45;100.00;95186.09;7405340;19;20384;-90
2023/12/24 08:36:03;;;;;;;1.20;1.10;;;;;;;8.48;100.00;95201.94;7406729;19;20357;-91
2023/12/24 08:38:31;;;;;;;1.10;1.00;;;;;;;8.47;100.00;95183.94;7403239;19;20389;-90
2023/12/24 08:40:58;;;;;;;0.87;0.80;;;;;;;7.92;100.00;95109.66;7403853;19;20388;-89
2023/12/24 08:43:25;;;;;;;0.80;0.70;;;;;;;8.13;100.00;95146.34;7403840;19;20933;-90
2023/12/24 08:45:53;;;;;;;0.90;0.90;;;;;;;8.32;100.00;95161.69;7404759;19;20397;-89
2023/12/24 08:48:20;;;;;;;1.10;0.80;;;;;;;8.12;100.00;95133.59;7403815;19;20409;-90
2023/12/24 08:50:48;;;;;;;1.10;0.93;;;;;;;8.29;100.00;95154.47;7403785;19;20953;-91
2023/12/24 08:53:16;;;;;;;1.20;0.90;;;;;;;7.70;100.00;95068.81;7402746;19;20401;-91
2023/12/24 08:55:43;;;;;;;0.80;0.80;;;;;;;7.41;100.00;95022.47;7404347;19;20417;-90
2023/12/24 08:58:12;;;;;;;1.23;1.13;;;;;;;7.91;100.00;95096.91;7404184;19;20368;-90
2023/12/24 09:00:39;;;;;;;1.60;1.50;;;;;;;7.58;100.00;95045.19;7403699;19;20377;-91
2023/12/24 09:03:07;;;;;;;4.20;1.73;;;;;;;8.38;100.00;95152.63;7401123;19;20507;-90
2023/12/24 09:05:35;;;;;;;1.33;1.23;;;;;;;8.79;100.00;95221.88;7403444;19;20385;-90
2023/12/24 09:08:03;;;;;;;1.47;1.37;;;;;;;7.50;100.00;95029.53;7404138;19;20388;-90
2023/12/24 09:10:31;;;;;;;1.83;1.73;;;;;;;8.21;100.00;95137.72;7405212;19;20385;-90
2023/12/24 09:12:58;;;;;;;1.17;1.07;;;;;;;8.23;100.00;95150.47;7400801;19;20432;-90
2023/12/24 09:15:26;;;;;;;2.53;2.33;;;;;;;7.98;100.00;95118.13;7403652;19;20409;-90
2023/12/24 09:17:53;;;;;;;2.83;2.63;;;;;;;8.11;100.00;95134.69;7402720;19;20377;-90
2023/12/24 09:20:21;;;;;;;1.73;1.43;;;;;;;7.61;100.00;95057.63;7399990;19;20393;-90
2023/12/24 09:22:49;;;;;;;2.10;1.60;;;;;;;7.96;100.00;95107.94;7406028;19;20456;-91
2023/12/24 09:25:17;;;;;;;2.07;1.40;;;;;;;8.17;100.00;95139.44;7407128;19;20388;-95
2023/12/24 09:27:44;;;;;;;0.83;0.83;;;;;;;8.33;100.00;95165.81;7406823;19;20404;-96
2023/12/24 09:30:12;;;;;;;1.10;0.90;;;;;;;8.24;100.00;95158.03;7405974;19;20409;-92
2023/12/24 09:32:43;;;;;;;0.90;0.90;;;;;;;8.54;100.00;95190.25;7402388;19;20403;-91
2023/12/24 09:35:11;;;;;;;1.17;0.87;;;;;;;8.69;100.00;95222.19;7403420;19;20380;-94
2023/12/24 09:37:38;;;;;;;1.07;1.00;;;;;;;8.43;100.00;95173.34;7403415;19;20417;-93
2023/12/24 09:40:07;;;;;;;1.40;1.30;;;;;;;8.10;100.00;95118.22;7400658;19;20401;-93
2023/12/24 09:42:35;;;;;;;1.60;1.50;;;;;;;8.20;100.00;95135.41;7402923;19;20480;-94
2023/12/24 09:45:03;;;;;;;1.30;1.20;;;;;;;8.23;100.00;95132.19;7405608;19;20361;-91
2023/12/24 09:47:30;;;;;;;1.10;1.00;;;;;;;8.20;100.00;95132.81;7403744;19;20470;-92
2023/12/24 09:50:00;;;;;;;0.97;0.90;;;;;;;8.39;100.00;95158.59;7402412;19;20483;-93
2023/12/24 09:52:29;;;;;;;1.50;1.10;;;;;;;8.91;100.00;95224.59;7401334;19;20945;-92
2023/12/24 09:54:56;;;;;;;1.00;1.00;;;;;;;8.23;100.00;95132.19;7403098;19;20380;-92
2023/12/24 09:57:24;;;;;;;1.00;0.90;;;;;;;8.23;100.00;95121.72;7403103;19;20400;-91
2023/12/24 09:59:52;;;;;;;0.97;0.97;;;;;;;8.38;100.00;95133.53;7400394;19;20468;-92
2023/12/24 10:02:20;;;;;;;1.13;1.13;;;;;;;8.85;100.00;95210.91;7400141;19;20416;-91
2023/12/24 10:04:47;;;;;;;1.50;1.40;;;;;;;8.42;100.00;95132.59;7401342;19;20388;-92
2023/12/24 10:07:15;;;;;;;1.33;1.20;;;;;;;8.28;100.00;95116.34;7403614;19;20361;-90
2023/12/24 10:09:49;;;;;;;1.80;1.30;;;;;;;8.53;100.00;95136.41;7401656;19;20373;-90
2023/12/24 10:12:18;;;;;;;1.97;1.37;;;;;;;8.57;100.00;95153.00;7402066;19;20882;-91
2023/12/24 10:14:57;;;;;;;4.30;3.93;;;;;;;8.74;100.00;95177.56;7402211;19;20369;-90
2023/12/24 10:17:34;;;;;;;1.40;0.77;;;;;;;8.58;100.00;95151.91;7402237;19;20407;-89
2023/12/24 10:20:08;;;;;;;1.03;0.93;;;;;;;8.70;100.00;95166.19;7410024;19;20842;-90
2023/12/24 10:22:36;;;;;;;1.70;1.60;;;;;;;9.01;100.00;95205.91;7408984;19;20737;-90
2023/12/24 10:25:06;;;;;;;0.90;0.90;;;;;;;8.39;100.00;95101.84;7411588;19;20365;-90
2023/12/24 10:27:34;;;;;;;1.50;0.90;;;;;;;8.70;100.00;95148.66;7405504;19;20373;-91
2023/12/24 10:30:12;;;;;;;2.17;1.97;;;;;;;9.04;100.00;95194.84;7401274;19;20444;-90
2023/12/24 10:32:42;;;;;;;0.90;0.90;;;;;;;8.95;100.00;95192.25;7414485;19;20452;-89
2023/12/24 10:35:12;;;;;;;1.73;1.30;;;;;;;9.00;100.00;95191.28;7430445;19;20392;-90
2023/12/24 10:37:39;;;;;;;0.87;0.87;;;;;;;8.33;100.00;95103.09;7430777;19;20429;-89
2023/12/24 10:40:08;;;;;;;1.07;0.97;;;;;;;8.45;100.00;95110.28;7429675;19;20435;-88
2023/12/24 10:42:37;;;;;;;0.80;0.80;;;;;;;9.02;100.00;95201.44;7429384;19;20433;-88
2023/12/24 10:45:06;;;;;;;1.50;1.40;;;;;;;8.71;100.00;95150.19;7431055;19;20377;-88
2023/12/24 10:47:34;;;;;;;9.30;8.50;;;;;;;9.01;100.00;95195.44;7430998;19;20383;-88
2023/12/24 10:50:03;;;;;;;4.07;3.77;;;;;;;8.83;100.00;95170.44;7405067;19;20369;-89
2023/12/24 10:52:31;;;;;;;1.40;1.30;;;;;;;8.12;100.00;95055.22;7398995;19;20441;-88
2023/12/24 10:55:00;;;;;;;5.20;4.70;;;;;;;8.94;100.00;95182.88;7399545;19;20873;-89
2023/12/24 10:58:04;;;;;;;6.10;5.20;;;;;;;8.85;100.00;95176.91;7400965;19;20385;-89
2023/12/24 11:00:31;;;;;;;1.67;1.40;;;;;;;8.39;100.00;95107.09;7399198;19;20364;-86
2023/12/24 11:02:59;;;;;;;3.93;3.63;;;;;;;8.56;100.00;95122.69;7397311;19;20430;-89
2023/12/24 11:05:29;;;;;;;3.50;3.17;;;;;;;8.97;100.00;95185.94;7400974;19;20370;-88
2023/12/24 11:07:57;;;;;;;1.93;1.73;;;;;;;8.55;100.00;95117.78;7399258;19;20727;-89
2023/12/24 11:10:39;;;;;;;1.50;1.40;;;;;;;8.91;100.00;95172.28;7399054;19;20373;-88
2023/12/24 11:13:31;;;;;;;6.80;5.70;;;;;;;8.98;100.00;95177.75;7397045;19;20700;-88
2023/12/24 11:16:00;;;;;;;1.37;1.20;;;;;;;8.44;100.00;95072.91;7398820;19;20694;-88
2023/12/24 11:18:44;;;;;;;3.20;2.70;;;;;;;8.46;100.00;95069.97;7398581;19;20400;-89
2023/12/24 11:21:14;;;;;;;1.70;1.60;;;;;;;8.65;100.00;95107.75;7396617;19;20399;-88
2023/12/24 11:24:02;;;;;;;2.80;2.60;;;;;;;9.10;100.00;95172.63;7398303;19;20388;-88
2023/12/24 11:26:31;;;;;;;1.73;1.63;;;;;;;8.97;100.00;95152.69;7399959;19;20405;-87
2023/12/24 11:28:59;;;;;;;1.87;1.53;;;;;;;9.11;100.00;95166.31;7400266;19;20655;-89
2023/12/24 11:31:27;;;;;;;1.13;1.10;;;;;;;8.55;100.00;95065.50;7397481;19;20404;-89
2023/12/24 11:33:56;;;;;;;1.60;1.10;;;;;;;9.10;100.00;95156.16;7397940;19;20858;-88
2023/12/24 11:36:24;;;;;;;0.90;0.80;;;;;;;8.38;100.00;95045.44;7397822;19;20389;-88
2023/12/24 11:38:57;;;;;;;2.10;2.00;;;;;;;8.95;100.00;95131.28;7397825;19;20384;-89
2023/12/24 11:41:26;;;;;;;1.37;1.27;;;;;;;8.84;100.00;95096.09;7398226;19;20393;-88